sensor_id;sensor_type;location;lat;lon;timestamp;P1;durP1;ratioP1;P2;durP2;ratioP2
4867;SDS011;2448;48.086;10.862;2022-08-19T00:02:12;7.80;;;5.00;;
4867;SDS011;2448;48.086;10.862;2022-08-19T00:04:38;10.10;;;5.93;;
4867;SDS011;2448;48.086;10.862;2022-08-19T00:07:04;9.47;;;5.77;;
4867;SDS011;2448;48.086;10.862;2022-08-19T00:09:30;12.10;;;6.00;;
4867;SDS011;2448;48.086;10.862;2022-08-19T00:11:56;11.97;;;6.47;;
4867;SDS011;2448;48.086;10.862;2022-08-19T00:14:21;9.53;;;5.40;;
4867;SDS011;2448;48.086;10.862;2022-08-19T00:16:47;8.07;;;4.40;;
4867;SDS011;2448;48.086;10.862;2022-08-19T00:19:14;11.23;;;5.13;;
4867;SDS011;2448;48.086;10.862;2022-08-19T00:21:39;14.70;;;5.47;;
4867;SDS011;2448;48.086;10.862;2022-08-19T00:24:06;8.43;;;4.60;;
4867;SDS011;2448;48.086;10.862;2022-08-19T00:26:31;6.87;;;4.87;;
4867;SDS011;2448;48.086;10.862;2022-08-19T00:28:57;12.77;;;4.57;;
4867;SDS011;2448;48.086;10.862;2022-08-19T00:31:22;7.20;;;4.60;;
4867;SDS011;2448;48.086;10.862;2022-08-19T00:33:48;7.47;;;4.40;;
4867;SDS011;2448;48.086;10.862;2022-08-19T00:36:15;7.60;;;4.73;;
4867;SDS011;2448;48.086;10.862;2022-08-19T00:38:41;5.70;;;3.87;;
4867;SDS011;2448;48.086;10.862;2022-08-19T00:41:09;8.33;;;4.57;;
4867;SDS011;2448;48.086;10.862;2022-08-19T00:43:35;13.47;;;5.03;;
4867;SDS011;2448;48.086;10.862;2022-08-19T00:46:00;5.20;;;4.03;;
4867;SDS011;2448;48.086;10.862;2022-08-19T00:48:29;7.83;;;4.40;;
4867;SDS011;2448;48.086;10.862;2022-08-19T00:50:55;6.17;;;4.07;;
4867;SDS011;2448;48.086;10.862;2022-08-19T00:53:21;5.70;;;4.63;;
4867;SDS011;2448;48.086;10.862;2022-08-19T00:55:48;6.17;;;4.20;;
4867;SDS011;2448;48.086;10.862;2022-08-19T00:58:17;5.27;;;3.90;;
4867;SDS011;2448;48.086;10.862;2022-08-19T01:00:43;5.93;;;4.00;;
4867;SDS011;2448;48.086;10.862;2022-08-19T01:03:16;5.23;;;3.50;;
4867;SDS011;2448;48.086;10.862;2022-08-19T01:05:42;4.80;;;3.37;;
4867;SDS011;2448;48.086;10.862;2022-08-19T01:08:08;7.00;;;4.07;;
4867;SDS011;2448;48.086;10.862;2022-08-19T01:10:37;4.83;;;3.40;;
4867;SDS011;2448;48.086;10.862;2022-08-19T01:13:04;3.50;;;3.20;;
4867;SDS011;2448;48.086;10.862;2022-08-19T01:15:31;5.47;;;3.30;;
4867;SDS011;2448;48.086;10.862;2022-08-19T01:17:58;5.37;;;3.53;;
4867;SDS011;2448;48.086;10.862;2022-08-19T01:20:24;3.50;;;3.17;;
4867;SDS011;2448;48.086;10.862;2022-08-19T01:22:54;3.50;;;3.03;;
4867;SDS011;2448;48.086;10.862;2022-08-19T01:25:20;6.53;;;3.40;;
4867;SDS011;2448;48.086;10.862;2022-08-19T01:27:48;5.10;;;3.50;;
4867;SDS011;2448;48.086;10.862;2022-08-19T01:30:16;6.47;;;4.20;;
4867;SDS011;2448;48.086;10.862;2022-08-19T01:32:41;4.23;;;3.33;;
4867;SDS011;2448;48.086;10.862;2022-08-19T01:35:08;5.50;;;3.67;;
4867;SDS011;2448;48.086;10.862;2022-08-19T01:37:54;3.30;;;2.60;;
4867;SDS011;2448;48.086;10.862;2022-08-19T01:40:20;4.50;;;2.67;;
4867;SDS011;2448;48.086;10.862;2022-08-19T01:42:47;7.40;;;3.50;;
4867;SDS011;2448;48.086;10.862;2022-08-19T01:45:13;4.80;;;3.60;;
4867;SDS011;2448;48.086;10.862;2022-08-19T01:47:38;2.47;;;2.27;;
4867;SDS011;2448;48.086;10.862;2022-08-19T01:50:05;4.70;;;3.67;;
4867;SDS011;2448;48.086;10.862;2022-08-19T01:52:31;4.93;;;3.70;;
4867;SDS011;2448;48.086;10.862;2022-08-19T01:54:56;3.53;;;3.20;;
4867;SDS011;2448;48.086;10.862;2022-08-19T01:57:22;4.57;;;3.00;;
4867;SDS011;2448;48.086;10.862;2022-08-19T01:59:47;9.50;;;4.00;;
4867;SDS011;2448;48.086;10.862;2022-08-19T02:02:13;7.60;;;4.07;;
4867;SDS011;2448;48.086;10.862;2022-08-19T02:04:38;9.27;;;3.47;;
4867;SDS011;2448;48.086;10.862;2022-08-19T02:07:04;9.43;;;4.00;;
4867;SDS011;2448;48.086;10.862;2022-08-19T02:09:30;5.67;;;3.70;;
4867;SDS011;2448;48.086;10.862;2022-08-19T02:11:56;4.03;;;3.70;;
4867;SDS011;2448;48.086;10.862;2022-08-19T02:14:21;5.03;;;3.87;;
4867;SDS011;2448;48.086;10.862;2022-08-19T02:16:47;5.40;;;4.13;;
4867;SDS011;2448;48.086;10.862;2022-08-19T02:19:13;4.60;;;3.90;;
4867;SDS011;2448;48.086;10.862;2022-08-19T02:21:38;5.73;;;3.70;;
4867;SDS011;2448;48.086;10.862;2022-08-19T02:24:04;10.73;;;6.03;;
4867;SDS011;2448;48.086;10.862;2022-08-19T02:26:29;6.43;;;4.33;;
4867;SDS011;2448;48.086;10.862;2022-08-19T02:28:55;6.53;;;4.03;;
4867;SDS011;2448;48.086;10.862;2022-08-19T02:31:22;4.63;;;3.90;;
4867;SDS011;2448;48.086;10.862;2022-08-19T02:33:48;8.37;;;4.40;;
4867;SDS011;2448;48.086;10.862;2022-08-19T02:36:14;4.77;;;3.93;;
4867;SDS011;2448;48.086;10.862;2022-08-19T02:38:40;9.17;;;4.37;;
4867;SDS011;2448;48.086;10.862;2022-08-19T02:41:07;10.17;;;3.83;;
4867;SDS011;2448;48.086;10.862;2022-08-19T02:43:36;4.80;;;3.40;;
4867;SDS011;2448;48.086;10.862;2022-08-19T02:46:10;9.07;;;4.13;;
4867;SDS011;2448;48.086;10.862;2022-08-19T02:48:36;4.93;;;4.00;;
4867;SDS011;2448;48.086;10.862;2022-08-19T02:51:01;7.37;;;4.03;;
4867;SDS011;2448;48.086;10.862;2022-08-19T02:53:27;4.93;;;3.70;;
4867;SDS011;2448;48.086;10.862;2022-08-19T02:55:52;5.97;;;4.33;;
4867;SDS011;2448;48.086;10.862;2022-08-19T02:58:18;5.70;;;4.50;;
4867;SDS011;2448;48.086;10.862;2022-08-19T03:00:51;7.10;;;4.40;;
4867;SDS011;2448;48.086;10.862;2022-08-19T03:03:17;7.67;;;4.03;;
4867;SDS011;2448;48.086;10.862;2022-08-19T03:05:43;6.40;;;4.03;;
4867;SDS011;2448;48.086;10.862;2022-08-19T03:08:09;6.70;;;4.10;;
4867;SDS011;2448;48.086;10.862;2022-08-19T03:10:55;5.80;;;4.00;;
4867;SDS011;2448;48.086;10.862;2022-08-19T03:13:20;5.50;;;4.43;;
4867;SDS011;2448;48.086;10.862;2022-08-19T03:15:47;7.30;;;3.90;;
4867;SDS011;2448;48.086;10.862;2022-08-19T03:18:13;7.80;;;4.20;;
4867;SDS011;2448;48.086;10.862;2022-08-19T03:20:43;4.77;;;3.77;;
4867;SDS011;2448;48.086;10.862;2022-08-19T03:23:08;5.17;;;4.37;;
4867;SDS011;2448;48.086;10.862;2022-08-19T03:25:38;10.43;;;3.47;;
4867;SDS011;2448;48.086;10.862;2022-08-19T03:28:03;9.70;;;4.60;;
4867;SDS011;2448;48.086;10.862;2022-08-19T03:30:29;10.10;;;3.77;;
4867;SDS011;2448;48.086;10.862;2022-08-19T03:32:54;7.47;;;5.27;;
4867;SDS011;2448;48.086;10.862;2022-08-19T03:35:20;10.87;;;4.20;;
4867;SDS011;2448;48.086;10.862;2022-08-19T03:37:45;6.53;;;4.67;;
4867;SDS011;2448;48.086;10.862;2022-08-19T03:40:11;5.80;;;4.07;;
4867;SDS011;2448;48.086;10.862;2022-08-19T03:42:36;7.27;;;4.90;;
4867;SDS011;2448;48.086;10.862;2022-08-19T03:45:02;7.40;;;4.47;;
4867;SDS011;2448;48.086;10.862;2022-08-19T03:47:27;9.10;;;5.37;;
4867;SDS011;2448;48.086;10.862;2022-08-19T03:49:53;7.13;;;4.30;;
4867;SDS011;2448;48.086;10.862;2022-08-19T03:52:18;12.17;;;5.07;;
4867;SDS011;2448;48.086;10.862;2022-08-19T03:54:44;5.13;;;4.30;;
4867;SDS011;2448;48.086;10.862;2022-08-19T03:57:10;7.67;;;4.30;;
4867;SDS011;2448;48.086;10.862;2022-08-19T03:59:37;6.60;;;4.50;;
4867;SDS011;2448;48.086;10.862;2022-08-19T04:02:03;10.50;;;4.63;;
4867;SDS011;2448;48.086;10.862;2022-08-19T04:04:33;7.40;;;4.50;;
4867;SDS011;2448;48.086;10.862;2022-08-19T04:06:59;8.13;;;4.70;;
4867;SDS011;2448;48.086;10.862;2022-08-19T04:09:24;7.60;;;4.80;;
4867;SDS011;2448;48.086;10.862;2022-08-19T04:11:51;10.20;;;5.10;;
4867;SDS011;2448;48.086;10.862;2022-08-19T04:14:20;8.00;;;4.53;;
4867;SDS011;2448;48.086;10.862;2022-08-19T04:16:46;8.07;;;5.80;;
4867;SDS011;2448;48.086;10.862;2022-08-19T04:19:12;7.77;;;4.87;;
4867;SDS011;2448;48.086;10.862;2022-08-19T04:21:37;12.03;;;6.33;;
4867;SDS011;2448;48.086;10.862;2022-08-19T04:24:03;14.00;;;7.60;;
4867;SDS011;2448;48.086;10.862;2022-08-19T04:26:30;13.20;;;7.67;;
4867;SDS011;2448;48.086;10.862;2022-08-19T04:29:03;14.67;;;7.20;;
4867;SDS011;2448;48.086;10.862;2022-08-19T04:31:31;13.63;;;7.40;;
4867;SDS011;2448;48.086;10.862;2022-08-19T04:33:58;14.23;;;7.50;;
4867;SDS011;2448;48.086;10.862;2022-08-19T04:36:26;15.90;;;8.60;;
4867;SDS011;2448;48.086;10.862;2022-08-19T04:38:55;13.13;;;7.83;;
4867;SDS011;2448;48.086;10.862;2022-08-19T04:41:21;10.90;;;6.97;;
4867;SDS011;2448;48.086;10.862;2022-08-19T04:44:05;15.97;;;9.20;;
4867;SDS011;2448;48.086;10.862;2022-08-19T04:46:31;16.80;;;9.13;;
4867;SDS011;2448;48.086;10.862;2022-08-19T04:48:57;13.97;;;8.67;;
4867;SDS011;2448;48.086;10.862;2022-08-19T04:51:23;15.60;;;8.30;;
4867;SDS011;2448;48.086;10.862;2022-08-19T04:53:48;13.87;;;7.70;;
4867;SDS011;2448;48.086;10.862;2022-08-19T04:56:14;12.50;;;8.30;;
4867;SDS011;2448;48.086;10.862;2022-08-19T04:58:41;16.30;;;8.50;;
4867;SDS011;2448;48.086;10.862;2022-08-19T05:01:08;15.10;;;7.63;;
4867;SDS011;2448;48.086;10.862;2022-08-19T05:03:34;17.20;;;9.03;;
4867;SDS011;2448;48.086;10.862;2022-08-19T05:06:06;13.90;;;7.37;;
4867;SDS011;2448;48.086;10.862;2022-08-19T05:08:32;12.83;;;7.57;;
4867;SDS011;2448;48.086;10.862;2022-08-19T05:10:58;16.83;;;8.90;;
4867;SDS011;2448;48.086;10.862;2022-08-19T05:13:24;16.67;;;8.43;;
4867;SDS011;2448;48.086;10.862;2022-08-19T05:15:54;21.73;;;9.83;;
4867;SDS011;2448;48.086;10.862;2022-08-19T05:18:20;20.97;;;10.10;;
4867;SDS011;2448;48.086;10.862;2022-08-19T05:21:08;19.70;;;10.20;;
4867;SDS011;2448;48.086;10.862;2022-08-19T05:23:52;18.83;;;9.83;;
4867;SDS011;2448;48.086;10.862;2022-08-19T05:26:17;21.23;;;10.60;;
4867;SDS011;2448;48.086;10.862;2022-08-19T05:28:43;21.00;;;10.70;;
4867;SDS011;2448;48.086;10.862;2022-08-19T05:31:08;23.23;;;10.13;;
4867;SDS011;2448;48.086;10.862;2022-08-19T05:33:34;24.83;;;10.53;;
4867;SDS011;2448;48.086;10.862;2022-08-19T05:36:00;21.10;;;10.77;;
4867;SDS011;2448;48.086;10.862;2022-08-19T05:38:26;21.87;;;10.57;;
4867;SDS011;2448;48.086;10.862;2022-08-19T05:40:55;19.57;;;11.33;;
4867;SDS011;2448;48.086;10.862;2022-08-19T05:43:20;18.63;;;9.57;;
4867;SDS011;2448;48.086;10.862;2022-08-19T05:45:46;19.73;;;10.13;;
4867;SDS011;2448;48.086;10.862;2022-08-19T05:48:11;20.70;;;10.00;;
4867;SDS011;2448;48.086;10.862;2022-08-19T05:50:38;19.47;;;9.70;;
4867;SDS011;2448;48.086;10.862;2022-08-19T05:53:03;20.27;;;10.90;;
4867;SDS011;2448;48.086;10.862;2022-08-19T05:55:29;20.27;;;11.20;;
4867;SDS011;2448;48.086;10.862;2022-08-19T05:57:54;24.80;;;11.13;;
4867;SDS011;2448;48.086;10.862;2022-08-19T06:00:20;22.77;;;10.80;;
4867;SDS011;2448;48.086;10.862;2022-08-19T06:02:45;20.30;;;10.47;;
4867;SDS011;2448;48.086;10.862;2022-08-19T06:05:11;19.67;;;11.80;;
4867;SDS011;2448;48.086;10.862;2022-08-19T06:07:37;18.50;;;10.60;;
4867;SDS011;2448;48.086;10.862;2022-08-19T06:10:03;25.63;;;12.67;;
4867;SDS011;2448;48.086;10.862;2022-08-19T06:12:30;25.07;;;11.57;;
4867;SDS011;2448;48.086;10.862;2022-08-19T06:15:04;21.10;;;11.20;;
4867;SDS011;2448;48.086;10.862;2022-08-19T06:17:30;20.37;;;9.77;;
4867;SDS011;2448;48.086;10.862;2022-08-19T06:19:56;25.47;;;11.60;;
4867;SDS011;2448;48.086;10.862;2022-08-19T06:22:21;27.37;;;11.83;;
4867;SDS011;2448;48.086;10.862;2022-08-19T06:24:47;20.47;;;10.47;;
4867;SDS011;2448;48.086;10.862;2022-08-19T06:27:12;23.20;;;10.93;;
4867;SDS011;2448;48.086;10.862;2022-08-19T06:29:38;22.50;;;10.43;;
4867;SDS011;2448;48.086;10.862;2022-08-19T06:32:03;21.87;;;11.57;;
4867;SDS011;2448;48.086;10.862;2022-08-19T06:34:30;24.90;;;11.73;;
4867;SDS011;2448;48.086;10.862;2022-08-19T06:36:56;28.17;;;11.20;;
4867;SDS011;2448;48.086;10.862;2022-08-19T06:39:23;21.33;;;11.90;;
4867;SDS011;2448;48.086;10.862;2022-08-19T06:41:50;24.23;;;12.30;;
4867;SDS011;2448;48.086;10.862;2022-08-19T06:44:16;27.30;;;12.50;;
4867;SDS011;2448;48.086;10.862;2022-08-19T06:46:42;26.70;;;12.03;;
4867;SDS011;2448;48.086;10.862;2022-08-19T06:49:08;29.40;;;10.70;;
4867;SDS011;2448;48.086;10.862;2022-08-19T06:51:39;23.00;;;11.30;;
4867;SDS011;2448;48.086;10.862;2022-08-19T06:54:04;23.60;;;11.67;;
4867;SDS011;2448;48.086;10.862;2022-08-19T06:56:30;19.27;;;10.57;;
4867;SDS011;2448;48.086;10.862;2022-08-19T06:59:03;23.60;;;11.77;;
4867;SDS011;2448;48.086;10.862;2022-08-19T07:01:29;22.53;;;10.20;;
4867;SDS011;2448;48.086;10.862;2022-08-19T07:03:54;19.70;;;10.70;;
4867;SDS011;2448;48.086;10.862;2022-08-19T07:06:20;18.33;;;9.33;;
4867;SDS011;2448;48.086;10.862;2022-08-19T07:08:46;20.70;;;10.63;;
4867;SDS011;2448;48.086;10.862;2022-08-19T07:11:13;17.47;;;9.33;;
4867;SDS011;2448;48.086;10.862;2022-08-19T07:13:39;18.20;;;9.83;;
4867;SDS011;2448;48.086;10.862;2022-08-19T07:16:08;15.10;;;7.70;;
4867;SDS011;2448;48.086;10.862;2022-08-19T07:18:34;11.50;;;6.57;;
4867;SDS011;2448;48.086;10.862;2022-08-19T07:21:07;11.00;;;7.10;;
4867;SDS011;2448;48.086;10.862;2022-08-19T07:23:33;11.90;;;6.73;;
4867;SDS011;2448;48.086;10.862;2022-08-19T07:25:59;9.40;;;5.90;;
4867;SDS011;2448;48.086;10.862;2022-08-19T07:28:28;10.07;;;6.17;;
4867;SDS011;2448;48.086;10.862;2022-08-19T07:30:54;11.23;;;5.77;;
4867;SDS011;2448;48.086;10.862;2022-08-19T07:33:19;11.80;;;6.87;;
4867;SDS011;2448;48.086;10.862;2022-08-19T07:35:45;9.23;;;6.60;;
4867;SDS011;2448;48.086;10.862;2022-08-19T07:38:11;11.90;;;7.00;;
4867;SDS011;2448;48.086;10.862;2022-08-19T07:40:36;15.07;;;7.70;;
4867;SDS011;2448;48.086;10.862;2022-08-19T07:43:01;12.03;;;7.33;;
4867;SDS011;2448;48.086;10.862;2022-08-19T07:45:27;22.43;;;6.87;;
4867;SDS011;2448;48.086;10.862;2022-08-19T07:47:53;13.80;;;8.80;;
4867;SDS011;2448;48.086;10.862;2022-08-19T07:50:19;12.63;;;7.60;;
4867;SDS011;2448;48.086;10.862;2022-08-19T07:52:44;18.40;;;9.17;;
4867;SDS011;2448;48.086;10.862;2022-08-19T07:55:11;15.33;;;9.30;;
4867;SDS011;2448;48.086;10.862;2022-08-19T07:57:37;15.63;;;8.73;;
4867;SDS011;2448;48.086;10.862;2022-08-19T08:00:04;15.93;;;8.27;;
4867;SDS011;2448;48.086;10.862;2022-08-19T08:02:37;17.83;;;9.57;;
4867;SDS011;2448;48.086;10.862;2022-08-19T08:05:04;19.00;;;8.90;;
4867;SDS011;2448;48.086;10.862;2022-08-19T08:07:48;14.87;;;8.23;;
4867;SDS011;2448;48.086;10.862;2022-08-19T08:10:32;17.17;;;7.97;;
4867;SDS011;2448;48.086;10.862;2022-08-19T08:12:57;17.73;;;9.37;;
4867;SDS011;2448;48.086;10.862;2022-08-19T08:15:23;12.33;;;7.90;;
4867;SDS011;2448;48.086;10.862;2022-08-19T08:17:48;18.70;;;9.27;;
4867;SDS011;2448;48.086;10.862;2022-08-19T08:20:14;15.30;;;8.67;;
4867;SDS011;2448;48.086;10.862;2022-08-19T08:22:43;18.33;;;9.13;;
4867;SDS011;2448;48.086;10.862;2022-08-19T08:25:27;16.17;;;8.63;;
4867;SDS011;2448;48.086;10.862;2022-08-19T08:27:53;21.10;;;10.80;;
4867;SDS011;2448;48.086;10.862;2022-08-19T08:30:21;17.20;;;8.40;;
4867;SDS011;2448;48.086;10.862;2022-08-19T08:32:47;19.50;;;10.80;;
4867;SDS011;2448;48.086;10.862;2022-08-19T08:35:14;18.67;;;9.17;;
4867;SDS011;2448;48.086;10.862;2022-08-19T08:37:40;17.47;;;9.40;;
4867;SDS011;2448;48.086;10.862;2022-08-19T08:40:06;19.57;;;9.50;;
4867;SDS011;2448;48.086;10.862;2022-08-19T08:42:36;23.13;;;9.33;;
4867;SDS011;2448;48.086;10.862;2022-08-19T08:45:12;25.13;;;11.60;;
4867;SDS011;2448;48.086;10.862;2022-08-19T08:47:40;28.37;;;11.20;;
4867;SDS011;2448;48.086;10.862;2022-08-19T08:50:12;18.63;;;10.20;;
4867;SDS011;2448;48.086;10.862;2022-08-19T08:52:41;18.07;;;9.77;;
4867;SDS011;2448;48.086;10.862;2022-08-19T08:55:18;21.10;;;10.13;;
4867;SDS011;2448;48.086;10.862;2022-08-19T09:00:17;18.10;;;10.27;;
4867;SDS011;2448;48.086;10.862;2022-08-19T09:02:43;22.40;;;10.07;;
4867;SDS011;2448;48.086;10.862;2022-08-19T09:05:09;20.43;;;9.77;;
4867;SDS011;2448;48.086;10.862;2022-08-19T09:10:18;19.17;;;8.97;;
4867;SDS011;2448;48.086;10.862;2022-08-19T09:15:22;16.93;;;9.30;;
4867;SDS011;2448;48.086;10.862;2022-08-19T09:17:50;18.20;;;8.77;;
4867;SDS011;2448;48.086;10.862;2022-08-19T09:20:17;22.10;;;10.27;;
4867;SDS011;2448;48.086;10.862;2022-08-19T09:22:43;18.90;;;8.30;;
4867;SDS011;2448;48.086;10.862;2022-08-19T09:25:10;25.47;;;10.30;;
4867;SDS011;2448;48.086;10.862;2022-08-19T09:27:36;20.70;;;10.77;;
4867;SDS011;2448;48.086;10.862;2022-08-19T09:30:03;22.90;;;9.27;;
4867;SDS011;2448;48.086;10.862;2022-08-19T09:32:29;18.50;;;9.37;;
4867;SDS011;2448;48.086;10.862;2022-08-19T09:34:55;14.60;;;8.23;;
4867;SDS011;2448;48.086;10.862;2022-08-19T09:37:23;19.73;;;9.03;;
4867;SDS011;2448;48.086;10.862;2022-08-19T09:39:49;18.50;;;9.37;;
4867;SDS011;2448;48.086;10.862;2022-08-19T09:42:15;23.30;;;10.47;;
4867;SDS011;2448;48.086;10.862;2022-08-19T09:44:40;23.57;;;9.60;;
4867;SDS011;2448;48.086;10.862;2022-08-19T09:47:07;17.63;;;8.60;;
4867;SDS011;2448;48.086;10.862;2022-08-19T09:49:33;17.20;;;9.03;;
4867;SDS011;2448;48.086;10.862;2022-08-19T09:51:58;18.37;;;10.17;;
4867;SDS011;2448;48.086;10.862;2022-08-19T09:54:24;13.07;;;7.30;;
4867;SDS011;2448;48.086;10.862;2022-08-19T09:56:49;14.00;;;8.10;;
4867;SDS011;2448;48.086;10.862;2022-08-19T09:59:15;19.87;;;8.00;;
4867;SDS011;2448;48.086;10.862;2022-08-19T10:01:40;14.03;;;7.30;;
4867;SDS011;2448;48.086;10.862;2022-08-19T10:04:06;16.63;;;7.60;;
4867;SDS011;2448;48.086;10.862;2022-08-19T10:06:35;19.00;;;9.20;;
4867;SDS011;2448;48.086;10.862;2022-08-19T10:09:01;19.53;;;8.20;;
4867;SDS011;2448;48.086;10.862;2022-08-19T10:11:27;20.43;;;8.40;;
4867;SDS011;2448;48.086;10.862;2022-08-19T10:13:54;14.00;;;7.47;;
4867;SDS011;2448;48.086;10.862;2022-08-19T10:16:20;15.33;;;7.80;;
4867;SDS011;2448;48.086;10.862;2022-08-19T10:18:47;17.00;;;8.17;;
4867;SDS011;2448;48.086;10.862;2022-08-19T10:21:14;16.60;;;7.40;;
4867;SDS011;2448;48.086;10.862;2022-08-19T10:23:42;10.40;;;6.80;;
4867;SDS011;2448;48.086;10.862;2022-08-19T10:26:11;14.80;;;6.40;;
4867;SDS011;2448;48.086;10.862;2022-08-19T10:28:37;12.13;;;6.10;;
4867;SDS011;2448;48.086;10.862;2022-08-19T10:31:03;11.60;;;6.57;;
4867;SDS011;2448;48.086;10.862;2022-08-19T10:33:30;10.00;;;6.30;;
4867;SDS011;2448;48.086;10.862;2022-08-19T10:36:06;13.10;;;6.10;;
4867;SDS011;2448;48.086;10.862;2022-08-19T10:38:32;18.80;;;7.03;;
4867;SDS011;2448;48.086;10.862;2022-08-19T10:41:06;22.77;;;6.70;;
4867;SDS011;2448;48.086;10.862;2022-08-19T10:43:32;10.87;;;5.70;;
4867;SDS011;2448;48.086;10.862;2022-08-19T10:46:01;8.83;;;5.37;;
4867;SDS011;2448;48.086;10.862;2022-08-19T10:48:27;9.73;;;5.27;;
4867;SDS011;2448;48.086;10.862;2022-08-19T10:50:52;14.97;;;5.77;;
4867;SDS011;2448;48.086;10.862;2022-08-19T10:53:36;19.27;;;6.10;;
4867;SDS011;2448;48.086;10.862;2022-08-19T10:56:02;8.80;;;5.47;;
4867;SDS011;2448;48.086;10.862;2022-08-19T10:58:46;12.83;;;5.70;;
4867;SDS011;2448;48.086;10.862;2022-08-19T11:01:11;7.53;;;5.00;;
4867;SDS011;2448;48.086;10.862;2022-08-19T11:03:36;8.63;;;5.37;;
4867;SDS011;2448;48.086;10.862;2022-08-19T11:06:03;7.50;;;4.83;;
4867;SDS011;2448;48.086;10.862;2022-08-19T11:08:29;9.50;;;4.90;;
4867;SDS011;2448;48.086;10.862;2022-08-19T11:10:57;6.37;;;3.90;;
4867;SDS011;2448;48.086;10.862;2022-08-19T11:13:26;4.67;;;3.83;;
4867;SDS011;2448;48.086;10.862;2022-08-19T11:15:59;3.33;;;3.03;;
4867;SDS011;2448;48.086;10.862;2022-08-19T11:18:24;6.93;;;3.63;;
4867;SDS011;2448;48.086;10.862;2022-08-19T11:20:50;3.37;;;2.37;;
4867;SDS011;2448;48.086;10.862;2022-08-19T11:23:15;3.63;;;2.80;;
4867;SDS011;2448;48.086;10.862;2022-08-19T11:25:40;3.03;;;2.40;;
4867;SDS011;2448;48.086;10.862;2022-08-19T11:28:06;2.43;;;2.23;;
4867;SDS011;2448;48.086;10.862;2022-08-19T11:30:32;3.67;;;2.37;;
4867;SDS011;2448;48.086;10.862;2022-08-19T11:32:58;2.30;;;2.10;;
4867;SDS011;2448;48.086;10.862;2022-08-19T11:35:25;2.30;;;2.10;;
4867;SDS011;2448;48.086;10.862;2022-08-19T11:37:51;4.63;;;2.33;;
4867;SDS011;2448;48.086;10.862;2022-08-19T11:40:16;4.03;;;2.63;;
4867;SDS011;2448;48.086;10.862;2022-08-19T11:42:42;3.40;;;2.50;;
4867;SDS011;2448;48.086;10.862;2022-08-19T11:45:23;2.13;;;2.03;;
4867;SDS011;2448;48.086;10.862;2022-08-19T11:47:48;3.10;;;2.50;;
4867;SDS011;2448;48.086;10.862;2022-08-19T11:50:14;2.00;;;1.90;;
4867;SDS011;2448;48.086;10.862;2022-08-19T11:52:40;2.40;;;2.03;;
4867;SDS011;2448;48.086;10.862;2022-08-19T11:55:06;2.20;;;2.00;;
4867;SDS011;2448;48.086;10.862;2022-08-19T11:57:32;1.97;;;1.87;;
4867;SDS011;2448;48.086;10.862;2022-08-19T11:59:57;2.07;;;1.80;;
4867;SDS011;2448;48.086;10.862;2022-08-19T12:02:22;1.87;;;1.77;;
4867;SDS011;2448;48.086;10.862;2022-08-19T12:04:48;1.83;;;1.73;;
4867;SDS011;2448;48.086;10.862;2022-08-19T12:07:14;2.20;;;2.00;;
4867;SDS011;2448;48.086;10.862;2022-08-19T12:09:39;1.77;;;1.67;;
4867;SDS011;2448;48.086;10.862;2022-08-19T12:12:05;3.07;;;2.13;;
4867;SDS011;2448;48.086;10.862;2022-08-19T12:14:31;2.33;;;2.10;;
4867;SDS011;2448;48.086;10.862;2022-08-19T12:16:57;1.87;;;1.77;;
4867;SDS011;2448;48.086;10.862;2022-08-19T12:19:22;2.30;;;2.10;;
4867;SDS011;2448;48.086;10.862;2022-08-19T12:21:49;2.77;;;2.57;;
4867;SDS011;2448;48.086;10.862;2022-08-19T12:24:15;2.97;;;2.30;;
4867;SDS011;2448;48.086;10.862;2022-08-19T12:26:41;2.80;;;2.60;;
4867;SDS011;2448;48.086;10.862;2022-08-19T12:29:06;2.20;;;2.10;;
4867;SDS011;2448;48.086;10.862;2022-08-19T12:31:33;3.03;;;2.33;;
4867;SDS011;2448;48.086;10.862;2022-08-19T12:33:58;1.90;;;1.80;;
4867;SDS011;2448;48.086;10.862;2022-08-19T12:36:24;2.00;;;1.90;;
4867;SDS011;2448;48.086;10.862;2022-08-19T12:38:50;2.27;;;2.07;;
4867;SDS011;2448;48.086;10.862;2022-08-19T12:41:16;2.37;;;2.17;;
4867;SDS011;2448;48.086;10.862;2022-08-19T12:43:43;2.10;;;2.00;;
4867;SDS011;2448;48.086;10.862;2022-08-19T12:46:09;2.50;;;2.30;;
4867;SDS011;2448;48.086;10.862;2022-08-19T12:48:34;2.53;;;2.40;;
4867;SDS011;2448;48.086;10.862;2022-08-19T12:51:00;5.47;;;2.93;;
4867;SDS011;2448;48.086;10.862;2022-08-19T12:53:30;2.13;;;2.00;;
4867;SDS011;2448;48.086;10.862;2022-08-19T12:55:56;3.10;;;2.73;;
4867;SDS011;2448;48.086;10.862;2022-08-19T12:58:22;2.50;;;2.30;;
4867;SDS011;2448;48.086;10.862;2022-08-19T13:00:48;2.67;;;2.47;;
4867;SDS011;2448;48.086;10.862;2022-08-19T13:03:14;2.33;;;2.13;;
4867;SDS011;2448;48.086;10.862;2022-08-19T13:05:39;2.43;;;2.23;;
4867;SDS011;2448;48.086;10.862;2022-08-19T13:08:04;2.53;;;2.33;;
4867;SDS011;2448;48.086;10.862;2022-08-19T13:10:32;1.83;;;1.73;;
4867;SDS011;2448;48.086;10.862;2022-08-19T13:12:59;1.77;;;1.67;;
4867;SDS011;2448;48.086;10.862;2022-08-19T13:15:26;2.50;;;2.30;;
4867;SDS011;2448;48.086;10.862;2022-08-19T13:17:53;10.40;;;1.93;;
4867;SDS011;2448;48.086;10.862;2022-08-19T13:20:20;1.67;;;1.57;;
4867;SDS011;2448;48.086;10.862;2022-08-19T13:22:46;1.73;;;1.63;;
4867;SDS011;2448;48.086;10.862;2022-08-19T13:25:13;1.77;;;1.67;;
4867;SDS011;2448;48.086;10.862;2022-08-19T13:27:39;1.93;;;1.73;;
4867;SDS011;2448;48.086;10.862;2022-08-19T13:30:05;1.40;;;1.40;;
4867;SDS011;2448;48.086;10.862;2022-08-19T13:32:50;2.20;;;1.90;;
4867;SDS011;2448;48.086;10.862;2022-08-19T13:35:34;1.80;;;1.70;;
4867;SDS011;2448;48.086;10.862;2022-08-19T13:37:59;1.30;;;1.30;;
4867;SDS011;2448;48.086;10.862;2022-08-19T13:40:30;2.23;;;2.07;;
4867;SDS011;2448;48.086;10.862;2022-08-19T13:42:59;1.50;;;1.40;;
4867;SDS011;2448;48.086;10.862;2022-08-19T13:45:25;1.20;;;1.20;;
4867;SDS011;2448;48.086;10.862;2022-08-19T13:47:52;1.27;;;1.10;;
4867;SDS011;2448;48.086;10.862;2022-08-19T13:50:20;1.50;;;1.40;;
4867;SDS011;2448;48.086;10.862;2022-08-19T13:52:47;1.30;;;1.30;;
4867;SDS011;2448;48.086;10.862;2022-08-19T13:55:12;1.10;;;1.10;;
4867;SDS011;2448;48.086;10.862;2022-08-19T13:57:38;1.40;;;1.30;;
4867;SDS011;2448;48.086;10.862;2022-08-19T14:00:05;1.00;;;1.00;;
4867;SDS011;2448;48.086;10.862;2022-08-19T14:02:31;1.03;;;1.03;;
4867;SDS011;2448;48.086;10.862;2022-08-19T14:04:56;1.53;;;1.43;;
4867;SDS011;2448;48.086;10.862;2022-08-19T14:07:23;0.90;;;0.90;;
4867;SDS011;2448;48.086;10.862;2022-08-19T14:09:49;1.50;;;1.40;;
4867;SDS011;2448;48.086;10.862;2022-08-19T14:12:18;1.80;;;1.70;;
4867;SDS011;2448;48.086;10.862;2022-08-19T14:14:43;1.50;;;1.40;;
4867;SDS011;2448;48.086;10.862;2022-08-19T14:17:09;1.40;;;1.30;;
4867;SDS011;2448;48.086;10.862;2022-08-19T14:19:34;1.60;;;1.33;;
4867;SDS011;2448;48.086;10.862;2022-08-19T14:22:00;0.93;;;0.93;;
4867;SDS011;2448;48.086;10.862;2022-08-19T14:24:25;1.03;;;1.03;;
4867;SDS011;2448;48.086;10.862;2022-08-19T14:26:51;1.40;;;1.00;;
4867;SDS011;2448;48.086;10.862;2022-08-19T14:29:16;0.80;;;0.80;;
4867;SDS011;2448;48.086;10.862;2022-08-19T14:31:42;0.60;;;0.60;;
4867;SDS011;2448;48.086;10.862;2022-08-19T14:34:08;0.67;;;0.67;;
4867;SDS011;2448;48.086;10.862;2022-08-19T14:36:35;0.80;;;0.80;;
4867;SDS011;2448;48.086;10.862;2022-08-19T14:39:01;0.80;;;0.80;;
4867;SDS011;2448;48.086;10.862;2022-08-19T14:41:26;0.83;;;0.83;;
4867;SDS011;2448;48.086;10.862;2022-08-19T14:43:52;0.80;;;0.80;;
4867;SDS011;2448;48.086;10.862;2022-08-19T14:46:19;0.70;;;0.70;;
4867;SDS011;2448;48.086;10.862;2022-08-19T14:48:46;0.97;;;0.80;;
4867;SDS011;2448;48.086;10.862;2022-08-19T14:51:11;0.83;;;0.83;;
4867;SDS011;2448;48.086;10.862;2022-08-19T14:53:37;0.70;;;0.70;;
4867;SDS011;2448;48.086;10.862;2022-08-19T14:56:07;0.80;;;0.80;;
4867;SDS011;2448;48.086;10.862;2022-08-19T14:58:32;0.70;;;0.70;;
4867;SDS011;2448;48.086;10.862;2022-08-19T15:00:58;1.07;;;1.07;;